sensor_id;sensor_type;location;lat;lon;timestamp;pressure;altitude;pressure_sealevel;temperature;humidity
21401;BME280;18038;50.166;18.908;2024-03-23T00:56:39;97350.06;;;10.86;59.27
21401;BME280;18038;50.166;18.908;2024-03-23T00:59:43;97351.28;;;10.83;59.54
21401;BME280;18038;50.166;18.908;2024-03-23T01:02:47;97342.69;;;10.81;59.62
21401;BME280;18038;50.166;18.908;2024-03-23T01:05:50;97342.44;;;10.70;59.65
21401;BME280;18038;50.166;18.908;2024-03-23T01:08:54;97334.22;;;10.64;59.46
21401;BME280;18038;50.166;18.908;2024-03-23T01:12:00;97329.28;;;10.61;59.39
21401;BME280;18038;50.166;18.908;2024-03-23T01:15:05;97326.81;;;10.60;59.50
21401;BME280;18038;50.166;18.908;2024-03-23T01:18:09;97322.72;;;10.57;59.87
21401;BME280;18038;50.166;18.908;2024-03-23T01:21:13;97320.25;;;10.56;59.58
21401;BME280;18038;50.166;18.908;2024-03-23T01:24:17;97316.97;;;10.54;59.64
21401;BME280;18038;50.166;18.908;2024-03-23T01:27:23;97316.34;;;10.52;60.06
21401;BME280;18038;50.166;18.908;2024-03-23T01:30:27;97308.53;;;10.43;60.34
21401;BME280;18038;50.166;18.908;2024-03-23T01:33:31;97310.22;;;10.44;60.42
21401;BME280;18038;50.166;18.908;2024-03-23T01:36:34;97305.06;;;10.43;60.72
21401;BME280;18038;50.166;18.908;2024-03-23T01:39:39;97302.19;;;10.38;60.55
21401;BME280;18038;50.166;18.908;2024-03-23T01:42:55;97298.09;;;10.35;61.12
21401;BME280;18038;50.166;18.908;2024-03-23T01:46:00;97291.13;;;10.34;61.15
21401;BME280;18038;50.166;18.908;2024-03-23T01:49:04;97297.91;;;10.37;61.20
21401;BME280;18038;50.166;18.908;2024-03-23T01:52:09;97292.97;;;10.34;60.81
21401;BME280;18038;50.166;18.908;2024-03-23T01:55:13;97291.31;;;10.33;61.10
21401;BME280;18038;50.166;18.908;2024-03-23T01:58:19;97289.69;;;10.32;61.04
21401;BME280;18038;50.166;18.908;2024-03-23T02:01:23;97291.31;;;10.26;60.81
21401;BME280;18038;50.166;18.908;2024-03-23T02:04:27;97286.59;;;10.28;60.84
21401;BME280;18038;50.166;18.908;2024-03-23T02:07:30;97282.91;;;10.29;60.89
21401;BME280;18038;50.166;18.908;2024-03-23T02:10:35;97276.78;;;10.29;60.27
21401;BME280;18038;50.166;18.908;2024-03-23T02:13:41;97275.94;;;10.28;60.73
21401;BME280;18038;50.166;18.908;2024-03-23T02:16:45;97259.75;;;10.23;60.78
21401;BME280;18038;50.166;18.908;2024-03-23T02:19:50;97268.53;;;10.17;61.09
21401;BME280;18038;50.166;18.908;2024-03-23T02:22:57;97262.81;;;10.13;60.85
21401;BME280;18038;50.166;18.908;2024-03-23T02:26:00;97265.88;;;10.17;60.88
21401;BME280;18038;50.166;18.908;2024-03-23T02:29:05;97266.91;;;10.22;61.08
21401;BME280;18038;50.166;18.908;2024-03-23T02:32:08;97249.50;;;10.20;61.00
21401;BME280;18038;50.166;18.908;2024-03-23T02:35:12;97259.56;;;10.18;60.86
21401;BME280;18038;50.166;18.908;2024-03-23T02:38:18;97259.16;;;10.28;60.93
21401;BME280;18038;50.166;18.908;2024-03-23T02:41:24;97251.38;;;10.26;60.86
21401;BME280;18038;50.166;18.908;2024-03-23T02:44:27;97237.84;;;10.21;61.48
21401;BME280;18038;50.166;18.908;2024-03-23T02:47:31;97238.22;;;10.11;62.06
21401;BME280;18038;50.166;18.908;2024-03-23T02:50:34;97234.53;;;10.12;62.13
21401;BME280;18038;50.166;18.908;2024-03-23T02:53:41;97226.19;;;10.15;62.31
21401;BME280;18038;50.166;18.908;2024-03-23T02:56:44;97231.69;;;10.14;62.38
21401;BME280;18038;50.166;18.908;2024-03-23T02:59:49;97234.53;;;10.12;62.21
21401;BME280;18038;50.166;18.908;2024-03-23T03:02:52;97235.75;;;10.03;62.08
21401;BME280;18038;50.166;18.908;2024-03-23T03:05:56;97230.03;;;9.99;62.31
21401;BME280;18038;50.166;18.908;2024-03-23T03:09:02;97230.03;;;10.06;62.24
21401;BME280;18038;50.166;18.908;2024-03-23T03:12:07;97225.16;;;10.16;62.52
21401;BME280;18038;50.166;18.908;2024-03-23T03:15:10;97225.78;;;10.25;62.83
21401;BME280;18038;50.166;18.908;2024-03-23T03:18:14;97224.16;;;10.24;63.03
21401;BME280;18038;50.166;18.908;2024-03-23T03:21:18;97196.91;;;10.22;62.96
21401;BME280;18038;50.166;18.908;2024-03-23T03:24:25;97204.25;;;10.20;63.85
21401;BME280;18038;50.166;18.908;2024-03-23T03:27:28;97191.34;;;10.03;64.53
21401;BME280;18038;50.166;18.908;2024-03-23T03:30:32;97197.03;;;9.87;65.41
21401;BME280;18038;50.166;18.908;2024-03-23T03:33:36;97187.19;;;9.81;66.28
21401;BME280;18038;50.166;18.908;2024-03-23T03:36:40;97190.84;;;9.73;65.88
21401;BME280;18038;50.166;18.908;2024-03-23T03:39:46;97185.72;;;9.72;65.94
21401;BME280;18038;50.166;18.908;2024-03-23T03:42:50;97187.16;;;9.74;65.17
21401;BME280;18038;50.166;18.908;2024-03-23T03:45:54;97183.28;;;9.77;64.92
21401;BME280;18038;50.166;18.908;2024-03-23T03:48:59;97189.63;;;9.76;64.80
21401;BME280;18038;50.166;18.908;2024-03-23T03:52:03;97168.31;;;9.63;64.92
21401;BME280;18038;50.166;18.908;2024-03-23T03:55:14;97166.19;;;9.51;66.46
21401;BME280;18038;50.166;18.908;2024-03-23T03:58:18;97163.69;;;9.43;66.53
21401;BME280;18038;50.166;18.908;2024-03-23T04:01:23;97157.09;;;9.32;67.16
21401;BME280;18038;50.166;18.908;2024-03-23T04:04:26;97165.47;;;9.23;68.33
21401;BME280;18038;50.166;18.908;2024-03-23T04:07:30;97149.13;;;9.26;69.00
21401;BME280;18038;50.166;18.908;2024-03-23T04:10:36;97162.41;;;9.26;69.52
21401;BME280;18038;50.166;18.908;2024-03-23T04:13:41;97151.09;;;9.17;70.05
21401;BME280;18038;50.166;18.908;2024-03-23T04:16:44;97155.19;;;9.13;70.64
21401;BME280;18038;50.166;18.908;2024-03-23T04:19:48;97150.44;;;9.08;70.40
21401;BME280;18038;50.166;18.908;2024-03-23T04:22:52;97138.31;;;8.99;70.99
21401;BME280;18038;50.166;18.908;2024-03-23T04:26:03;97134.56;;;8.87;71.93
21401;BME280;18038;50.166;18.908;2024-03-23T04:29:06;97136.34;;;8.80;73.05
21401;BME280;18038;50.166;18.908;2024-03-23T04:32:11;97127.31;;;8.74;73.37
21401;BME280;18038;50.166;18.908;2024-03-23T04:35:14;97123.22;;;8.71;74.20
21401;BME280;18038;50.166;18.908;2024-03-23T04:38:18;97117.28;;;8.69;74.22
21401;BME280;18038;50.166;18.908;2024-03-23T04:41:24;97110.34;;;8.68;74.23
21401;BME280;18038;50.166;18.908;2024-03-23T04:44:28;97108.69;;;8.67;74.82
21401;BME280;18038;50.166;18.908;2024-03-23T04:47:32;97110.97;;;8.70;74.77
21401;BME280;18038;50.166;18.908;2024-03-23T04:50:36;97107.91;;;8.74;74.25
21401;BME280;18038;50.166;18.908;2024-03-23T04:53:40;97115.78;;;8.88;73.52
21401;BME280;18038;50.166;18.908;2024-03-23T04:56:47;97112.97;;;8.97;73.40
21401;BME280;18038;50.166;18.908;2024-03-23T04:59:50;97104.28;;;9.09;73.02
21401;BME280;18038;50.166;18.908;2024-03-23T05:02:54;97110.44;;;9.17;72.99
21401;BME280;18038;50.166;18.908;2024-03-23T05:05:58;97119.06;;;9.25;72.11
21401;BME280;18038;50.166;18.908;2024-03-23T05:09:02;97111.75;;;9.34;72.01
21401;BME280;18038;50.166;18.908;2024-03-23T05:12:08;97102.56;;;9.43;71.61
21401;BME280;18038;50.166;18.908;2024-03-23T05:15:13;97104.84;;;9.53;71.42
21401;BME280;18038;50.166;18.908;2024-03-23T05:18:16;97111.03;;;9.60;70.69
21401;BME280;18038;50.166;18.908;2024-03-23T05:21:20;97111.03;;;9.67;70.67
21401;BME280;18038;50.166;18.908;2024-03-23T05:24:23;97102.06;;;9.74;70.35
21401;BME280;18038;50.166;18.908;2024-03-23T05:27:32;97102.69;;;9.83;70.32
21401;BME280;18038;50.166;18.908;2024-03-23T05:30:36;97102.31;;;9.86;69.88
21401;BME280;18038;50.166;18.908;2024-03-23T05:33:40;97109.44;;;9.86;69.77
21401;BME280;18038;50.166;18.908;2024-03-23T05:36:43;97102.09;;;9.88;69.27
21401;BME280;18038;50.166;18.908;2024-03-23T05:39:47;97099.00;;;9.91;69.64
21401;BME280;18038;50.166;18.908;2024-03-23T05:42:53;97106.00;;;9.92;69.42
21401;BME280;18038;50.166;18.908;2024-03-23T05:45:59;97104.97;;;9.93;69.41
21401;BME280;18038;50.166;18.908;2024-03-23T05:49:03;97096.16;;;9.92;69.91
21401;BME280;18038;50.166;18.908;2024-03-23T05:52:08;97089.00;;;9.93;70.33
21401;BME280;18038;50.166;18.908;2024-03-23T05:55:11;97086.97;;;9.95;70.04
21401;BME280;18038;50.166;18.908;2024-03-23T05:58:18;97073.22;;;9.91;69.80
21401;BME280;18038;50.166;18.908;2024-03-23T06:01:22;97066.31;;;9.97;70.48
21401;BME280;18038;50.166;18.908;2024-03-23T06:04:27;97055.84;;;9.95;70.19
21401;BME280;18038;50.166;18.908;2024-03-23T06:07:30;97050.91;;;9.86;69.79
21401;BME280;18038;50.166;18.908;2024-03-23T06:10:34;97049.72;;;9.82;70.53
21401;BME280;18038;50.166;18.908;2024-03-23T06:13:40;97058.28;;;9.77;71.29
21401;BME280;18038;50.166;18.908;2024-03-23T06:16:44;97043.56;;;9.68;72.58
21401;BME280;18038;50.166;18.908;2024-03-23T06:19:48;97033.72;;;9.62;72.67
21401;BME280;18038;50.166;18.908;2024-03-23T06:22:52;97047.19;;;9.53;72.79
21401;BME280;18038;50.166;18.908;2024-03-23T06:25:56;97032.91;;;9.54;73.12
21401;BME280;18038;50.166;18.908;2024-03-23T06:29:03;97030.63;;;9.51;73.11
21401;BME280;18038;50.166;18.908;2024-03-23T06:32:07;97036.16;;;9.56;73.26
21401;BME280;18038;50.166;18.908;2024-03-23T06:35:11;97032.91;;;9.61;72.46
21401;BME280;18038;50.166;18.908;2024-03-23T06:38:14;97038.25;;;9.81;71.51
21401;BME280;18038;50.166;18.908;2024-03-23T06:41:19;97032.53;;;9.97;70.06
21401;BME280;18038;50.166;18.908;2024-03-23T06:44:25;97030.69;;;10.18;69.47
21401;BME280;18038;50.166;18.908;2024-03-23T06:47:29;97031.69;;;10.30;68.38
21401;BME280;18038;50.166;18.908;2024-03-23T06:50:32;97028.63;;;10.40;68.11
21401;BME280;18038;50.166;18.908;2024-03-23T06:53:37;97034.75;;;10.54;67.72
21401;BME280;18038;50.166;18.908;2024-03-23T06:56:40;97023.66;;;10.70;67.36
21401;BME280;18038;50.166;18.908;2024-03-23T06:59:47;97023.19;;;10.86;65.81
21401;BME280;18038;50.166;18.908;2024-03-23T07:02:51;97010.00;;;11.05;64.98
21401;BME280;18038;50.166;18.908;2024-03-23T07:05:58;97011.38;;;11.27;64.10
21401;BME280;18038;50.166;18.908;2024-03-23T07:09:01;97012.19;;;11.60;63.32
21401;BME280;18038;50.166;18.908;2024-03-23T07:12:06;97018.72;;;11.95;62.43
21401;BME280;18038;50.166;18.908;2024-03-23T07:15:12;97015.03;;;12.21;60.87
21401;BME280;18038;50.166;18.908;2024-03-23T07:18:16;97018.38;;;12.60;59.46
21401;BME280;18038;50.166;18.908;2024-03-23T07:21:20;97020.28;;;13.87;56.82
21401;BME280;18038;50.166;18.908;2024-03-23T07:24:24;97020.84;;;14.31;54.42
21401;BME280;18038;50.166;18.908;2024-03-23T07:27:27;97012.09;;;14.24;55.17
21401;BME280;18038;50.166;18.908;2024-03-23T07:30:34;97012.19;;;14.06;55.53
21401;BME280;18038;50.166;18.908;2024-03-23T07:33:43;97011.03;;;13.60;56.09
21401;BME280;18038;50.166;18.908;2024-03-23T07:36:48;97004.94;;;13.22;57.90
21401;BME280;18038;50.166;18.908;2024-03-23T07:39:52;97011.78;;;12.81;59.31
21401;BME280;18038;50.166;18.908;2024-03-23T07:42:56;97017.50;;;12.48;59.90
21401;BME280;18038;50.166;18.908;2024-03-23T07:46:02;97008.59;;;12.54;59.60
21401;BME280;18038;50.166;18.908;2024-03-23T07:49:07;97007.38;;;13.84;56.63
21401;BME280;18038;50.166;18.908;2024-03-23T07:52:10;96996.41;;;14.63;53.63
21401;BME280;18038;50.166;18.908;2024-03-23T07:55:14;97003.16;;;15.46;50.83
21401;BME280;18038;50.166;18.908;2024-03-23T07:58:18;96992.84;;;16.51;48.39
21401;BME280;18038;50.166;18.908;2024-03-23T08:01:25;96985.28;;;17.31;46.18
21401;BME280;18038;50.166;18.908;2024-03-23T08:04:28;96971.06;;;17.90;44.53
21401;BME280;18038;50.166;18.908;2024-03-23T08:07:32;96968.75;;;18.84;42.12
21401;BME280;18038;50.166;18.908;2024-03-23T08:10:36;96969.88;;;20.02;40.96
21401;BME280;18038;50.166;18.908;2024-03-23T08:13:41;96960.59;;;20.85;38.41
21401;BME280;18038;50.166;18.908;2024-03-23T08:16:48;96956.59;;;20.51;37.55
21401;BME280;18038;50.166;18.908;2024-03-23T08:19:52;96953.63;;;21.33;36.43
21401;BME280;18038;50.166;18.908;2024-03-23T08:22:55;96951.94;;;21.87;35.08
21401;BME280;18038;50.166;18.908;2024-03-23T08:26:40;96938.28;;;22.02;34.28
21401;BME280;18038;50.166;18.908;2024-03-23T08:29:45;96926.63;;;21.18;35.63
21401;BME280;18038;50.166;18.908;2024-03-23T08:34:22;96912.88;;;20.19;37.19
21401;BME280;18038;50.166;18.908;2024-03-23T08:37:26;96912.31;;;19.91;36.39
21401;BME280;18038;50.166;18.908;2024-03-23T08:40:56;96909.06;;;19.43;37.12
21401;BME280;18038;50.166;18.908;2024-03-23T08:44:01;96895.84;;;19.62;36.84
21401;BME280;18038;50.166;18.908;2024-03-23T08:47:05;96889.06;;;19.64;37.05
21401;BME280;18038;50.166;18.908;2024-03-23T08:51:01;96893.25;;;18.94;38.48
21401;BME280;18038;50.166;18.908;2024-03-23T08:54:06;96882.13;;;18.80;37.92
21401;BME280;18038;50.166;18.908;2024-03-23T08:57:09;96864.16;;;19.16;37.24
21401;BME280;18038;50.166;18.908;2024-03-23T09:00:14;96866.03;;;19.00;37.23
21401;BME280;18038;50.166;18.908;2024-03-23T09:03:18;96865.84;;;19.48;36.78
21401;BME280;18038;50.166;18.908;2024-03-23T09:06:25;96845.06;;;19.64;36.53
21401;BME280;18038;50.166;18.908;2024-03-23T09:09:28;96839.88;;;19.16;36.57
21401;BME280;18038;50.166;18.908;2024-03-23T09:12:32;96845.44;;;18.74;37.29
21401;BME280;18038;50.166;18.908;2024-03-23T09:15:37;96839.34;;;18.36;38.17
21401;BME280;18038;50.166;18.908;2024-03-23T09:18:49;96840.75;;;17.96;39.64
21401;BME280;18038;50.166;18.908;2024-03-23T09:21:55;96825.53;;;18.27;39.49
21401;BME280;18038;50.166;18.908;2024-03-23T09:24:59;96817.38;;;18.07;39.11
21401;BME280;18038;50.166;18.908;2024-03-23T09:28:03;96803.88;;;18.02;38.99
21401;BME280;18038;50.166;18.908;2024-03-23T09:31:08;96814.31;;;17.93;39.52
21401;BME280;18038;50.166;18.908;2024-03-23T09:34:12;96808.34;;;17.86;39.79
21401;BME280;18038;50.166;18.908;2024-03-23T09:37:19;96788.75;;;18.01;39.93
21401;BME280;18038;50.166;18.908;2024-03-23T09:40:22;96779.81;;;18.48;39.17
21401;BME280;18038;50.166;18.908;2024-03-23T09:43:27;96775.94;;;19.48;37.96
21401;BME280;18038;50.166;18.908;2024-03-23T09:46:31;96767.13;;;20.17;36.34
21401;BME280;18038;50.166;18.908;2024-03-23T09:49:35;96764.56;;;20.51;33.86
21401;BME280;18038;50.166;18.908;2024-03-23T09:52:41;96756.53;;;20.86;33.64
21401;BME280;18038;50.166;18.908;2024-03-23T09:55:46;96748.88;;;21.37;33.27
21401;BME280;18038;50.166;18.908;2024-03-23T09:58:49;96747.16;;;21.47;32.61
21401;BME280;18038;50.166;18.908;2024-03-23T10:01:53;96741.22;;;22.22;31.80
21401;BME280;18038;50.166;18.908;2024-03-23T10:04:57;96730.25;;;22.08;31.49
21401;BME280;18038;50.166;18.908;2024-03-23T10:08:17;96721.84;;;22.10;30.52
21401;BME280;18038;50.166;18.908;2024-03-23T10:11:21;96719.59;;;21.93;31.12
21401;BME280;18038;50.166;18.908;2024-03-23T10:14:29;96715.91;;;21.83;31.34
21401;BME280;18038;50.166;18.908;2024-03-23T10:17:32;96717.41;;;21.66;32.24
21401;BME280;18038;50.166;18.908;2024-03-23T10:20:36;96704.06;;;22.22;31.86
21401;BME280;18038;50.166;18.908;2024-03-23T10:23:44;96703.22;;;22.03;30.80
21401;BME280;18038;50.166;18.908;2024-03-23T10:26:56;96687.66;;;21.36;32.20
21401;BME280;18038;50.166;18.908;2024-03-23T10:30:08;96696.81;;;21.94;31.79
21401;BME280;18038;50.166;18.908;2024-03-23T10:33:14;96682.84;;;22.48;31.25
21401;BME280;18038;50.166;18.908;2024-03-23T10:39:25;96679.59;;;22.46;31.74
21401;BME280;18038;50.166;18.908;2024-03-23T10:42:29;96683.50;;;22.78;30.04
21401;BME280;18038;50.166;18.908;2024-03-23T10:45:34;96669.50;;;23.04;30.21
21401;BME280;18038;50.166;18.908;2024-03-23T10:48:37;96663.19;;;23.08;30.19
21401;BME280;18038;50.166;18.908;2024-03-23T10:51:42;96648.28;;;22.73;30.71
21401;BME280;18038;50.166;18.908;2024-03-23T10:54:51;96642.63;;;22.13;30.88
21401;BME280;18038;50.166;18.908;2024-03-23T10:57:58;96644.53;;;22.69;29.95
21401;BME280;18038;50.166;18.908;2024-03-23T11:01:03;96635.50;;;23.06;29.32
21401;BME280;18038;50.166;18.908;2024-03-23T11:04:07;96625.69;;;23.10;29.01
21401;BME280;18038;50.166;18.908;2024-03-23T11:07:29;96605.97;;;23.19;28.49
21401;BME280;18038;50.166;18.908;2024-03-23T11:10:37;96594.53;;;23.35;29.04
21401;BME280;18038;50.166;18.908;2024-03-23T11:13:40;96579.75;;;21.92;29.59
21401;BME280;18038;50.166;18.908;2024-03-23T11:16:44;96562.50;;;21.39;31.64
21401;BME280;18038;50.166;18.908;2024-03-23T11:19:53;96534.84;;;20.89;31.74
21401;BME280;18038;50.166;18.908;2024-03-23T11:22:59;96546.53;;;20.61;31.96
21401;BME280;18038;50.166;18.908;2024-03-23T11:26:09;96544.25;;;20.97;31.94
21401;BME280;18038;50.166;18.908;2024-03-23T11:29:15;96535.88;;;21.47;31.17
21401;BME280;18038;50.166;18.908;2024-03-23T11:32:19;96535.53;;;21.05;32.29
21401;BME280;18038;50.166;18.908;2024-03-23T11:36:00;96518.59;;;21.43;31.03
21401;BME280;18038;50.166;18.908;2024-03-23T11:39:12;96505.81;;;21.67;30.50
21401;BME280;18038;50.166;18.908;2024-03-23T11:42:17;96497.66;;;21.29;31.00
21401;BME280;18038;50.166;18.908;2024-03-23T11:45:21;96495.09;;;20.90;31.34
21401;BME280;18038;50.166;18.908;2024-03-23T11:48:24;96480.09;;;20.73;31.20
21401;BME280;18038;50.166;18.908;2024-03-23T11:51:31;96479.59;;;21.01;30.77
21401;BME280;18038;50.166;18.908;2024-03-23T11:54:35;96468.28;;;21.36;30.82
21401;BME280;18038;50.166;18.908;2024-03-23T11:57:39;96467.28;;;21.32;31.43
21401;BME280;18038;50.166;18.908;2024-03-23T12:00:49;96461.16;;;21.46;30.53
21401;BME280;18038;50.166;18.908;2024-03-23T12:03:55;96438.38;;;21.47;30.06
21401;BME280;18038;50.166;18.908;2024-03-23T12:07:15;96434.06;;;21.83;30.08
21401;BME280;18038;50.166;18.908;2024-03-23T12:10:21;96444.91;;;21.83;30.09
21401;BME280;18038;50.166;18.908;2024-03-23T12:13:24;96432.72;;;21.62;29.98
21401;BME280;18038;50.166;18.908;2024-03-23T12:16:28;96420.06;;;21.76;29.58
21401;BME280;18038;50.166;18.908;2024-03-23T12:19:32;96423.06;;;21.75;27.99
21401;BME280;18038;50.166;18.908;2024-03-23T12:22:39;96405.13;;;21.60;28.30
21401;BME280;18038;50.166;18.908;2024-03-23T12:25:42;96386.91;;;21.28;29.60
21401;BME280;18038;50.166;18.908;2024-03-23T12:28:46;96382.66;;;20.79;30.80
21401;BME280;18038;50.166;18.908;2024-03-23T12:31:49;96388.00;;;21.08;29.95
21401;BME280;18038;50.166;18.908;2024-03-23T12:34:53;96374.19;;;21.09;29.84
21401;BME280;18038;50.166;18.908;2024-03-23T12:37:59;96365.53;;;21.26;28.27
21401;BME280;18038;50.166;18.908;2024-03-23T12:41:04;96367.22;;;21.22;28.06
21401;BME280;18038;50.166;18.908;2024-03-23T12:44:07;96349.00;;;21.09;27.12
21401;BME280;18038;50.166;18.908;2024-03-23T12:47:11;96349.75;;;21.14;27.21
21401;BME280;18038;50.166;18.908;2024-03-23T12:50:15;96345.13;;;21.15;27.88
21401;BME280;18038;50.166;18.908;2024-03-23T12:53:22;96341.75;;;21.23;28.08
21401;BME280;18038;50.166;18.908;2024-03-23T12:56:25;96336.94;;;21.20;28.24
21401;BME280;18038;50.166;18.908;2024-03-23T12:59:31;96334.50;;;20.57;28.70
21401;BME280;18038;50.166;18.908;2024-03-23T13:02:34;96331.13;;;20.46;29.19
21401;BME280;18038;50.166;18.908;2024-03-23T13:05:38;96334.91;;;20.69;28.96
21401;BME280;18038;50.166;18.908;2024-03-23T13:08:45;96341.19;;;20.83;29.16
21401;BME280;18038;50.166;18.908;2024-03-23T13:11:49;96332.03;;;20.36;29.58
21401;BME280;18038;50.166;18.908;2024-03-23T13:14:52;96322.78;;;19.89;29.75
21401;BME280;18038;50.166;18.908;2024-03-23T13:17:57;96319.13;;;19.75;30.86
21401;BME280;18038;50.166;18.908;2024-03-23T13:21:00;96325.97;;;19.62;31.48
21401;BME280;18038;50.166;18.908;2024-03-23T13:24:07;96324.56;;;19.35;31.67
21401;BME280;18038;50.166;18.908;2024-03-23T13:27:11;96323.84;;;19.19;31.79
21401;BME280;18038;50.166;18.908;2024-03-23T13:30:15;96320.97;;;19.06;32.35
21401;BME280;18038;50.166;18.908;2024-03-23T13:33:19;96334.47;;;19.06;32.32
21401;BME280;18038;50.166;18.908;2024-03-23T13:36:23;96343.44;;;18.91;33.43
21401;BME280;18038;50.166;18.908;2024-03-23T13:39:30;96356.78;;;18.67;33.54
21401;BME280;18038;50.166;18.908;2024-03-23T13:42:34;96394.59;;;18.46;34.29
21401;BME280;18038;50.166;18.908;2024-03-23T13:45:38;96510.50;;;18.41;35.16
21401;BME280;18038;50.166;18.908;2024-03-23T13:48:42;96541.09;;;16.26;52.46
21401;BME280;18038;50.166;18.908;2024-03-23T13:51:46;96559.84;;;14.45;62.51
21401;BME280;18038;50.166;18.908;2024-03-23T13:56:12;96589.38;;;12.83;68.05
21401;BME280;18038;50.166;18.908;2024-03-23T13:59:17;96603.25;;;12.14;71.37
21401;BME280;18038;50.166;18.908;2024-03-23T14:02:20;96626.38;;;11.72;75.40
21401;BME280;18038;50.166;18.908;2024-03-23T14:05:25;96638.53;;;11.31;77.57
21401;BME280;18038;50.166;18.908;2024-03-23T14:08:28;96638.22;;;11.02;80.19
21401;BME280;18038;50.166;18.908;2024-03-23T14:11:35;96631.78;;;10.92;80.78
21401;BME280;18038;50.166;18.908;2024-03-23T14:14:39;96635.66;;;10.71;82.05
21401;BME280;18038;50.166;18.908;2024-03-23T14:17:43;96629.25;;;10.53;82.72
21401;BME280;18038;50.166;18.908;2024-03-23T14:20:46;96614.81;;;10.36;84.33
21401;BME280;18038;50.166;18.908;2024-03-23T14:23:50;96572.81;;;10.44;88.21
21401;BME280;18038;50.166;18.908;2024-03-23T14:26:56;96547.34;;;10.49;87.16
21401;BME280;18038;50.166;18.908;2024-03-23T14:30:00;96554.81;;;10.40;87.24
21401;BME280;18038;50.166;18.908;2024-03-23T14:33:04;96565.94;;;10.55;87.25
21401;BME280;18038;50.166;18.908;2024-03-23T14:36:08;96551.53;;;10.63;86.18
21401;BME280;18038;50.166;18.908;2024-03-23T14:39:11;96544.75;;;10.67;84.92
21401;BME280;18038;50.166;18.908;2024-03-23T14:42:19;96559.56;;;10.81;84.93
21401;BME280;18038;50.166;18.908;2024-03-23T14:45:22;96556.03;;;10.87;84.52
21401;BME280;18038;50.166;18.908;2024-03-23T14:50:59;96543.72;;;11.05;82.96
21401;BME280;18038;50.166;18.908;2024-03-23T14:54:04;96556.16;;;11.11;83.30
21401;BME280;18038;50.166;18.908;2024-03-23T14:59:32;96578.44;;;11.17;81.78
21401;BME280;18038;50.166;18.908;2024-03-23T15:02:36;96591.63;;;11.11;82.88
21401;BME280;18038;50.166;18.908;2024-03-23T15:05:39;96615.78;;;10.92;83.84
21401;BME280;18038;50.166;18.908;2024-03-23T15:08:44;96626.84;;;10.70;85.35
21401;BME280;18038;50.166;18.908;2024-03-23T15:11:47;96614.25;;;10.34;88.36
21401;BME280;18038;50.166;18.908;2024-03-23T15:14:54;96618.38;;;10.30;90.11
21401;BME280;18038;50.166;18.908;2024-03-23T15:17:57;96612.66;;;10.26;91.24
21401;BME280;18038;50.166;18.908;2024-03-23T15:21:03;96612.22;;;10.29;92.90
21401;BME280;18038;50.166;18.908;2024-03-23T15:24:08;96604.13;;;10.17;94.50
21401;BME280;18038;50.166;18.908;2024-03-23T15:27:12;96589.41;;;10.15;95.90
21401;BME280;18038;50.166;18.908;2024-03-23T15:30:18;96602.06;;;10.19;96.49
21401;BME280;18038;50.166;18.908;2024-03-23T15:36:53;96591.78;;;10.23;96.25
21401;BME280;18038;50.166;18.908;2024-03-23T15:39:57;96584.69;;;10.17;96.11
21401;BME280;18038;50.166;18.908;2024-03-23T15:43:00;96601.25;;;10.19;95.90
21401;BME280;18038;50.166;18.908;2024-03-23T15:46:05;96623.41;;;10.13;95.52
21401;BME280;18038;50.166;18.908;2024-03-23T15:49:08;96618.09;;;10.13;94.95
21401;BME280;18038;50.166;18.908;2024-03-23T15:52:15;96607.31;;;10.01;95.57
21401;BME280;18038;50.166;18.908;2024-03-23T15:55:18;96614.03;;;10.03;95.12
21401;BME280;18038;50.166;18.908;2024-03-23T15:58:23;96628.81;;;9.99;94.96
21401;BME280;18038;50.166;18.908;2024-03-23T16:01:27;96637.19;;;9.96;93.28
21401;BME280;18038;50.166;18.908;2024-03-23T16:04:31;96640.16;;;9.82;93.40
21401;BME280;18038;50.166;18.908;2024-03-23T16:07:37;96648.13;;;9.82;93.20
21401;BME280;18038;50.166;18.908;2024-03-23T16:12:32;96659.81;;;9.74;93.85
21401;BME280;18038;50.166;18.908;2024-03-23T16:15:37;96644.31;;;9.71;94.23
21401;BME280;18038;50.166;18.908;2024-03-23T16:18:40;96658.41;;;9.65;94.65
21401;BME280;18038;50.166;18.908;2024-03-23T16:21:44;96650.44;;;9.65;95.21
21401;BME280;18038;50.166;18.908;2024-03-23T16:24:48;96659.28;;;9.58;95.88
